createdAt,value
2022-11-08T00:01:03.896Z,7.23
2022-11-08T00:02:05.848Z,7.21
2022-11-08T00:03:07.907Z,7.17
2022-11-08T00:04:11.620Z,7.13
2022-11-08T00:05:32.026Z,7.15
2022-11-08T00:06:52.641Z,7.18
2022-11-08T00:08:12.770Z,7.24
2022-11-08T00:09:33.580Z,7.26
2022-11-08T00:10:53.694Z,7.26
2022-11-08T00:12:13.794Z,7.28
2022-11-08T00:13:34.049Z,7.30
2022-11-08T00:14:35.847Z,7.26
2022-11-08T00:15:39.088Z,7.25
2022-11-08T00:16:41.228Z,7.27
2022-11-08T00:17:43.163Z,7.32
2022-11-08T00:18:45.036Z,7.29
2022-11-08T00:19:46.946Z,7.30
2022-11-08T00:20:48.705Z,7.26
2022-11-08T00:21:50.750Z,7.29
2022-11-08T00:22:52.530Z,7.30
2022-11-08T00:23:54.561Z,7.30
2022-11-08T00:24:56.324Z,7.29
2022-11-08T00:25:58.113Z,7.29
2022-11-08T00:26:59.946Z,7.27
2022-11-08T00:28:01.739Z,7.27
2022-11-08T00:29:03.630Z,7.28
2022-11-08T00:30:05.622Z,7.19
2022-11-08T00:31:07.751Z,7.20
2022-11-08T00:32:12.013Z,7.22
2022-11-08T00:33:13.778Z,7.21
2022-11-08T00:34:15.700Z,7.19
2022-11-08T00:35:17.508Z,7.21
2022-11-08T00:36:19.284Z,7.23
2022-11-08T00:37:21.605Z,7.14
2022-11-08T00:38:23.362Z,7.02
2022-11-08T00:39:25.296Z,6.97
2022-11-08T00:40:27.071Z,6.95
2022-11-08T00:41:28.861Z,6.93
2022-11-08T00:42:30.723Z,6.94
2022-11-08T00:43:32.524Z,6.99
2022-11-08T00:44:35.000Z,7.05
2022-11-08T00:45:36.892Z,7.11
2022-11-08T00:46:39.360Z,7.16
2022-11-08T00:47:41.073Z,7.21
2022-11-08T00:48:42.915Z,7.26
2022-11-08T00:49:44.748Z,7.27
2022-11-08T00:50:46.541Z,7.22
2022-11-08T00:51:48.439Z,7.22
2022-11-08T00:52:50.188Z,7.21
2022-11-08T00:53:51.999Z,7.10
2022-11-08T00:54:53.842Z,7.07
2022-11-08T00:56:06.014Z,7.03
2022-11-08T00:57:07.851Z,6.95
2022-11-08T00:58:09.663Z,6.99
2022-11-08T00:59:12.951Z,7.04
2022-11-08T01:00:15.064Z,7.02
2022-11-08T01:01:18.247Z,6.96
2022-11-08T01:02:20.173Z,6.92
2022-11-08T01:03:22.642Z,6.86
2022-11-08T01:04:24.473Z,6.88
2022-11-08T01:05:26.339Z,6.92
2022-11-08T01:06:28.219Z,6.93
2022-11-08T01:07:30.182Z,6.93
2022-11-08T01:08:31.926Z,6.91
2022-11-08T01:09:33.732Z,6.92
2022-11-08T01:10:35.921Z,6.92
2022-11-08T01:11:38.795Z,6.94
2022-11-08T01:12:40.599Z,6.97
2022-11-08T01:13:42.845Z,6.98
2022-11-08T01:14:44.638Z,7.02
2022-11-08T01:15:47.039Z,7.05
2022-11-08T01:16:48.919Z,7.08
2022-11-08T01:17:50.733Z,7.12
2022-11-08T01:18:54.182Z,7.10
2022-11-08T01:19:56.011Z,7.11
2022-11-08T01:20:57.899Z,7.12
2022-11-08T01:21:59.813Z,7.07
2022-11-08T01:23:01.728Z,7.04
2022-11-08T01:24:03.568Z,7.07
2022-11-08T01:25:05.603Z,7.10
2022-11-08T01:26:09.152Z,7.12
2022-11-08T01:27:10.943Z,7.14
2022-11-08T01:28:13.062Z,7.14
2022-11-08T01:29:14.912Z,7.14
2022-11-08T01:30:16.744Z,7.09
2022-11-08T01:31:20.497Z,7.06
2022-11-08T01:32:22.314Z,6.97
2022-11-08T01:33:24.132Z,6.94
2022-11-08T01:34:25.890Z,6.93
2022-11-08T01:35:27.774Z,6.89
2022-11-08T01:36:29.688Z,6.92
2022-11-08T01:37:31.549Z,6.96
2022-11-08T01:38:34.142Z,6.96
2022-11-08T01:39:35.987Z,6.90
2022-11-08T01:40:47.836Z,6.92
2022-11-08T01:41:49.617Z,6.94
2022-11-08T01:42:51.531Z,6.96
2022-11-08T01:43:54.960Z,6.98
2022-11-08T01:44:58.032Z,6.97
2022-11-08T01:46:18.409Z,6.99
2022-11-08T01:47:20.242Z,6.91
2022-11-08T01:48:22.530Z,6.89
2022-11-08T01:49:27.154Z,6.86
2022-11-08T01:50:29.058Z,6.87
2022-11-08T01:51:38.043Z,6.86
2022-11-08T01:52:45.832Z,6.79
2022-11-08T01:53:48.008Z,6.76
2022-11-08T01:54:52.599Z,6.75
2022-11-08T01:55:54.529Z,6.77
2022-11-08T01:56:57.103Z,6.80
2022-11-08T01:58:04.064Z,6.72
2022-11-08T01:59:07.553Z,6.72
2022-11-08T02:00:10.747Z,6.75
2022-11-08T02:01:13.291Z,6.78
2022-11-08T02:02:15.321Z,6.79
2022-11-08T02:03:18.836Z,6.82
2022-11-08T02:04:20.643Z,6.82
2022-11-08T02:05:25.794Z,6.76
2022-11-08T02:06:29.254Z,6.73
2022-11-08T02:07:32.088Z,6.68
2022-11-08T02:08:43.733Z,6.65
2022-11-08T02:09:47.313Z,6.64
2022-11-08T02:10:51.452Z,6.65
2022-11-08T02:11:53.941Z,6.63
2022-11-08T02:12:56.520Z,6.59
2022-11-08T02:13:58.515Z,6.61
2022-11-08T02:15:00.423Z,6.61
2022-11-08T02:16:02.195Z,6.59
2022-11-08T02:17:04.427Z,6.60
2022-11-08T02:18:06.431Z,6.65
2022-11-08T02:19:10.618Z,6.61
2022-11-08T02:20:12.468Z,6.60
2022-11-08T02:21:24.947Z,6.59
2022-11-08T02:22:29.381Z,6.58
2022-11-08T02:23:51.004Z,6.54
2022-11-08T02:24:53.139Z,6.59
2022-11-08T02:25:55.351Z,6.59
2022-11-08T02:26:57.929Z,6.54
2022-11-08T02:27:59.785Z,6.50
2022-11-08T02:29:20.147Z,6.50
2022-11-08T02:30:21.920Z,6.51
2022-11-08T02:31:23.909Z,6.48
2022-11-08T02:32:25.810Z,6.46
2022-11-08T02:33:27.616Z,6.45
2022-11-08T02:34:42.837Z,6.44
2022-11-08T02:35:49.649Z,6.40
2022-11-08T02:36:51.536Z,6.45
2022-11-08T02:37:53.841Z,6.49
2022-11-08T02:38:57.832Z,6.51
2022-11-08T02:39:59.678Z,6.56
2022-11-08T02:41:01.429Z,6.61
2022-11-08T02:42:03.361Z,6.65
2022-11-08T02:43:05.215Z,6.65
2022-11-08T02:44:07.238Z,6.68
2022-11-08T02:45:09.379Z,6.67
2022-11-08T02:46:11.127Z,6.70
2022-11-08T02:47:12.960Z,6.71
2022-11-08T02:48:15.198Z,6.73
2022-11-08T02:49:17.272Z,6.69
2022-11-08T02:50:19.190Z,6.68
2022-11-08T02:51:21.031Z,6.64
2022-11-08T02:52:22.838Z,6.59
2022-11-08T02:53:24.645Z,6.54
2022-11-08T02:54:26.458Z,6.47
2022-11-08T02:55:28.837Z,6.50
2022-11-08T02:56:31.203Z,6.45
2022-11-08T02:57:33.119Z,6.41
2022-11-08T02:58:35.120Z,6.40
2022-11-08T02:59:36.885Z,6.40
2022-11-08T03:00:39.339Z,6.35
2022-11-08T03:01:41.321Z,6.26
2022-11-08T03:02:43.303Z,6.23
2022-11-08T03:03:45.212Z,6.21
2022-11-08T03:04:47.063Z,6.20
2022-11-08T03:05:48.901Z,6.26
2022-11-08T03:06:50.709Z,6.31
2022-11-08T03:07:53.429Z,6.24
2022-11-08T03:08:55.332Z,6.18
2022-11-08T03:09:57.143Z,6.17
2022-11-08T03:11:01.832Z,6.19
2022-11-08T03:12:03.766Z,6.17
2022-11-08T03:13:05.890Z,6.19
2022-11-08T03:14:07.827Z,6.20
2022-11-08T03:15:10.452Z,6.19
2022-11-08T03:16:12.375Z,6.21
2022-11-08T03:17:14.160Z,6.22
2022-11-08T03:18:16.303Z,6.23
2022-11-08T03:19:18.289Z,6.27
2022-11-08T03:20:20.044Z,6.28
2022-11-08T03:21:21.920Z,6.30
2022-11-08T03:22:23.786Z,6.27
2022-11-08T03:23:25.628Z,6.27
2022-11-08T03:24:27.485Z,6.28
2022-11-08T03:25:29.810Z,6.31
2022-11-08T03:26:32.279Z,6.31
2022-11-08T03:27:36.942Z,6.32
2022-11-08T03:28:38.847Z,6.34
2022-11-08T03:29:40.684Z,6.37
2022-11-08T03:30:42.502Z,6.29
2022-11-08T03:31:44.214Z,6.28
2022-11-08T03:32:47.122Z,6.28
2022-11-08T03:33:48.976Z,6.26
2022-11-08T03:34:50.848Z,6.28
2022-11-08T03:35:53.311Z,6.31
2022-11-08T03:36:55.093Z,6.33
2022-11-08T03:37:57.508Z,6.28
2022-11-08T03:38:59.563Z,6.17
2022-11-08T03:40:02.319Z,6.19
2022-11-08T03:41:04.250Z,6.11
2022-11-08T03:42:06.647Z,6.14
2022-11-08T03:43:08.463Z,6.12
2022-11-08T03:44:10.432Z,6.12
2022-11-08T03:45:12.573Z,6.09
2022-11-08T03:46:14.435Z,6.12
2022-11-08T03:47:16.244Z,6.08
2022-11-08T03:48:19.263Z,6.12
2022-11-08T03:49:21.474Z,6.14
2022-11-08T03:50:23.352Z,6.13
2022-11-08T03:51:25.280Z,6.06
2022-11-08T03:52:27.017Z,6.04
2022-11-08T03:53:28.942Z,6.06
2022-11-08T03:54:30.785Z,6.09
2022-11-08T03:55:32.659Z,6.02
2022-11-08T03:56:34.476Z,5.96
2022-11-08T03:57:36.865Z,5.97
2022-11-08T03:58:38.813Z,5.93
2022-11-08T03:59:40.553Z,5.89
2022-11-08T04:00:42.441Z,5.92
2022-11-08T04:01:44.499Z,5.89
2022-11-08T04:02:46.546Z,5.94
2022-11-08T04:03:48.343Z,5.98
2022-11-08T04:04:50.081Z,5.86
2022-11-08T04:05:52.010Z,5.88
2022-11-08T04:06:53.894Z,5.89
2022-11-08T04:07:55.633Z,5.92
2022-11-08T04:08:57.427Z,5.97
2022-11-08T04:09:59.243Z,5.96
2022-11-08T04:11:19.536Z,6.00
2022-11-08T04:12:40.324Z,6.01
2022-11-08T04:14:00.451Z,5.97
2022-11-08T04:15:17.145Z,5.94
2022-11-08T04:16:18.963Z,5.93
2022-11-08T04:17:40.734Z,5.89
2022-11-08T04:19:01.201Z,5.87
2022-11-08T04:20:21.304Z,5.84
2022-11-08T04:21:23.221Z,5.78
2022-11-08T04:22:25.222Z,5.73
2022-11-08T04:23:27.589Z,5.74
2022-11-08T04:24:29.395Z,5.78
2022-11-08T04:25:34.980Z,5.75
2022-11-08T04:26:37.418Z,5.73
2022-11-08T04:27:39.230Z,5.73
2022-11-08T04:28:41.660Z,5.71
2022-11-08T04:29:43.456Z,5.69
2022-11-08T04:30:45.274Z,5.69
2022-11-08T04:31:47.046Z,5.74
2022-11-08T04:32:49.029Z,5.82
2022-11-08T04:33:50.843Z,5.79
2022-11-08T04:34:52.652Z,5.81
2022-11-08T04:35:54.551Z,5.82
2022-11-08T04:36:56.475Z,5.80
2022-11-08T04:37:59.486Z,5.75
2022-11-08T04:39:01.259Z,5.72
2022-11-08T04:40:03.092Z,5.70
2022-11-08T04:41:09.618Z,5.71
2022-11-08T04:42:11.446Z,5.78
2022-11-08T04:43:13.393Z,5.84
2022-11-08T04:44:16.104Z,5.87
2022-11-08T04:45:18.053Z,5.84
2022-11-08T04:46:24.750Z,5.79
2022-11-08T04:47:27.890Z,5.81
2022-11-08T04:48:30.298Z,5.85
2022-11-08T04:49:32.063Z,5.86
2022-11-08T04:50:34.198Z,5.89
2022-11-08T04:51:36.017Z,5.92
2022-11-08T04:52:37.872Z,5.92
2022-11-08T04:53:39.775Z,5.90
2022-11-08T04:54:45.236Z,5.89
2022-11-08T04:55:46.958Z,5.91
2022-11-08T04:56:48.903Z,5.92
2022-11-08T04:57:50.683Z,5.92
2022-11-08T04:58:53.802Z,5.91
2022-11-08T04:59:55.533Z,5.90
2022-11-08T05:00:59.738Z,5.85
2022-11-08T05:02:01.776Z,5.77
2022-11-08T05:03:06.607Z,5.79
2022-11-08T05:04:09.966Z,5.81
2022-11-08T05:05:11.747Z,5.81
2022-11-08T05:06:15.625Z,5.80
2022-11-08T05:07:17.496Z,5.80
2022-11-08T05:08:19.685Z,5.84
2022-11-08T05:09:21.861Z,5.82
2022-11-08T05:10:23.705Z,5.72
2022-11-08T05:11:26.843Z,5.71
2022-11-08T05:12:28.712Z,5.73
2022-11-08T05:13:31.204Z,5.73
2022-11-08T05:14:33.077Z,5.78
2022-11-08T05:15:36.022Z,5.72
2022-11-08T05:16:37.940Z,5.73
2022-11-08T05:17:39.761Z,5.74
2022-11-08T05:18:42.195Z,5.78
2022-11-08T05:20:02.696Z,5.76
2022-11-08T05:21:22.851Z,5.75
2022-11-08T05:22:42.981Z,5.78
2022-11-08T05:23:45.380Z,5.78
2022-11-08T05:24:47.188Z,5.77
2022-11-08T05:25:49.145Z,5.77
2022-11-08T05:26:51.008Z,5.72
2022-11-08T05:27:52.842Z,5.72
2022-11-08T05:28:54.636Z,5.74
2022-11-08T05:29:56.452Z,5.79
2022-11-08T05:30:58.460Z,5.78
2022-11-08T05:32:00.222Z,5.72
2022-11-08T05:33:02.028Z,5.72
2022-11-08T05:34:04.294Z,5.72
2022-11-08T05:35:06.410Z,5.70
2022-11-08T05:36:10.904Z,5.73
2022-11-08T05:37:12.800Z,5.67
2022-11-08T05:38:15.432Z,5.69
2022-11-08T05:39:17.697Z,5.66
2022-11-08T05:40:19.523Z,5.68
2022-11-08T05:41:23.195Z,5.73
2022-11-08T05:42:25.024Z,5.72
2022-11-08T05:43:26.778Z,5.74
2022-11-08T05:44:28.792Z,5.69
2022-11-08T05:45:30.699Z,5.67
2022-11-08T05:46:32.688Z,5.64
2022-11-08T05:47:34.742Z,5.65
2022-11-08T05:48:36.582Z,5.63
2022-11-08T05:49:38.403Z,5.68
2022-11-08T05:50:40.386Z,5.66
2022-11-08T05:51:42.276Z,5.68
2022-11-08T05:52:44.118Z,5.68
2022-11-08T05:53:47.282Z,5.64
2022-11-08T05:54:49.052Z,5.61
2022-11-08T05:55:50.793Z,5.63
2022-11-08T05:56:52.707Z,5.66
2022-11-08T05:57:54.459Z,5.66
2022-11-08T05:58:56.260Z,5.69
2022-11-08T05:59:58.062Z,5.72
2022-11-08T06:01:00.715Z,5.72
2022-11-08T06:02:02.664Z,5.69
2022-11-08T06:03:05.225Z,5.66
2022-11-08T06:04:07.116Z,5.63
2022-11-08T06:05:09.465Z,5.64
2022-11-08T06:06:12.679Z,5.63
2022-11-08T06:07:14.548Z,5.64
2022-11-08T06:08:16.316Z,5.60
2022-11-08T06:09:18.113Z,5.63
2022-11-08T06:10:19.969Z,5.60
2022-11-08T06:11:25.881Z,5.63
2022-11-08T06:12:27.756Z,5.64
2022-11-08T06:13:29.836Z,5.61
2022-11-08T06:14:32.080Z,5.67
2022-11-08T06:15:33.876Z,5.69
2022-11-08T06:16:35.683Z,5.67
2022-11-08T06:17:37.582Z,5.68
2022-11-08T06:18:39.959Z,5.73
2022-11-08T06:19:41.806Z,5.68
2022-11-08T06:20:43.590Z,5.62
2022-11-08T06:21:45.321Z,5.64
2022-11-08T06:22:47.137Z,5.64
2022-11-08T06:23:54.721Z,5.66
2022-11-08T06:24:57.918Z,5.66
2022-11-08T06:25:59.916Z,5.68
2022-11-08T06:27:01.737Z,5.70
2022-11-08T06:28:03.700Z,5.77
2022-11-08T06:29:05.530Z,5.75
2022-11-08T06:30:07.712Z,5.74
2022-11-08T06:31:10.094Z,5.75
2022-11-08T06:32:11.955Z,5.72
2022-11-08T06:33:13.844Z,5.72
2022-11-08T06:34:15.637Z,5.72
2022-11-08T06:35:17.459Z,5.68
2022-11-08T06:36:21.538Z,5.69
2022-11-08T06:37:23.376Z,5.70
2022-11-08T06:38:25.390Z,5.69
2022-11-08T06:39:27.296Z,5.68
2022-11-08T06:40:29.229Z,5.68
2022-11-08T06:41:31.196Z,5.74
2022-11-08T06:42:33.079Z,5.73
2022-11-08T06:43:34.970Z,5.71
2022-11-08T06:44:36.998Z,5.73
2022-11-08T06:45:39.047Z,5.75
2022-11-08T06:46:40.785Z,5.75
2022-11-08T06:47:42.530Z,5.75
2022-11-08T06:48:44.646Z,5.79
2022-11-08T06:49:46.526Z,5.77
2022-11-08T06:50:48.691Z,5.78
2022-11-08T06:51:51.119Z,5.74
2022-11-08T06:52:58.737Z,5.75
2022-11-08T06:54:00.717Z,5.76
2022-11-08T06:55:02.540Z,5.75
2022-11-08T06:56:04.486Z,5.73
2022-11-08T06:57:06.266Z,5.74
2022-11-08T06:58:08.074Z,5.76
2022-11-08T06:59:10.466Z,5.78
2022-11-08T07:00:12.680Z,5.77
2022-11-08T07:01:14.454Z,5.78
2022-11-08T07:02:16.458Z,5.78
2022-11-08T07:03:18.735Z,5.81
2022-11-08T07:04:21.090Z,5.82
2022-11-08T07:05:23.456Z,5.72
2022-11-08T07:06:25.401Z,5.73
2022-11-08T07:07:27.162Z,5.73
2022-11-08T07:08:28.935Z,5.74
2022-11-08T07:09:30.746Z,5.72
2022-11-08T07:10:33.384Z,5.74
2022-11-08T07:11:35.376Z,5.77
2022-11-08T07:12:37.191Z,5.77
2022-11-08T07:13:38.968Z,5.77
2022-11-08T07:14:40.740Z,5.80
2022-11-08T07:15:42.586Z,5.78
2022-11-08T07:16:44.580Z,5.73
2022-11-08T07:17:46.367Z,5.76
2022-11-08T07:18:48.261Z,5.81
2022-11-08T07:19:50.058Z,5.87
2022-11-08T07:20:52.651Z,5.87
2022-11-08T07:21:54.567Z,5.87
2022-11-08T07:22:57.098Z,5.82
2022-11-08T07:23:59.047Z,5.80
2022-11-08T07:25:00.896Z,5.80
2022-11-08T07:26:05.846Z,5.78
2022-11-08T07:27:07.696Z,5.74
2022-11-08T07:28:14.284Z,5.75
2022-11-08T07:29:16.401Z,5.75
2022-11-08T07:30:18.658Z,5.75
2022-11-08T07:31:20.598Z,5.73
2022-11-08T07:32:22.435Z,5.72
2022-11-08T07:33:24.264Z,5.76
2022-11-08T07:34:26.043Z,5.76
2022-11-08T07:35:28.571Z,5.76
2022-11-08T07:36:30.345Z,5.74
2022-11-08T07:37:33.283Z,5.73
2022-11-08T07:38:35.051Z,5.76
2022-11-08T07:39:36.794Z,5.81
2022-11-08T07:40:38.563Z,5.86
2022-11-08T07:41:40.424Z,5.87
2022-11-08T07:43:11.274Z,5.89
2022-11-08T07:44:04.753Z,5.93
2022-11-08T07:45:07.361Z,5.93
2022-11-08T07:46:11.259Z,5.92
2022-11-08T07:47:13.090Z,5.88
2022-11-08T07:48:14.985Z,5.87
2022-11-08T07:49:16.736Z,5.86
2022-11-08T07:50:18.514Z,5.86
2022-11-08T07:51:20.266Z,5.87
2022-11-08T07:52:22.152Z,5.90
2022-11-08T07:53:24.415Z,5.95
2022-11-08T07:54:26.114Z,5.94
2022-11-08T07:55:28.063Z,5.97
2022-11-08T07:56:29.841Z,6.00
2022-11-08T07:57:31.632Z,6.02
2022-11-08T07:58:34.746Z,6.06
2022-11-08T07:59:36.534Z,6.14
2022-11-08T08:00:39.508Z,6.21
2022-11-08T08:01:41.482Z,6.24
2022-11-08T08:02:43.563Z,6.28
2022-11-08T08:03:45.630Z,6.31
2022-11-08T08:04:47.449Z,6.34
2022-11-08T08:05:55.387Z,6.38
2022-11-08T08:07:00.017Z,6.41
2022-11-08T08:08:02.636Z,6.45
2022-11-08T08:09:04.719Z,6.51
2022-11-08T08:10:06.737Z,6.57
2022-11-08T08:11:08.522Z,6.63
2022-11-08T08:12:10.301Z,6.69
2022-11-08T08:13:12.094Z,6.69
2022-11-08T08:14:13.938Z,6.71
2022-11-08T08:15:15.795Z,6.74
2022-11-08T08:16:17.677Z,6.77
2022-11-08T08:17:19.483Z,6.80
2022-11-08T08:18:22.097Z,6.82
2022-11-08T08:19:23.909Z,6.83
2022-11-08T08:20:25.731Z,6.87
2022-11-08T08:21:27.533Z,6.89
2022-11-08T08:22:29.663Z,6.92
2022-11-08T08:23:31.460Z,6.98
2022-11-08T08:24:33.412Z,7.03
2022-11-08T08:25:35.315Z,7.01
2022-11-08T08:26:37.253Z,7.04
2022-11-08T08:27:39.407Z,7.07
2022-11-08T08:28:41.322Z,7.12
2022-11-08T08:29:43.211Z,7.12
2022-11-08T08:30:44.994Z,7.16
2022-11-08T08:31:46.836Z,7.20
2022-11-08T08:33:02.096Z,7.27
2022-11-08T08:34:10.946Z,7.34
2022-11-08T08:35:13.217Z,7.36
2022-11-08T08:36:14.974Z,7.33
2022-11-08T08:37:17.572Z,7.38
2022-11-08T08:38:19.433Z,7.43
2022-11-08T08:39:21.309Z,7.45
2022-11-08T08:40:23.135Z,7.48
2022-11-08T08:41:24.976Z,7.48
2022-11-08T08:42:26.778Z,7.50
2022-11-08T08:43:29.275Z,7.53
2022-11-08T08:44:31.140Z,7.58
2022-11-08T08:45:34.004Z,7.68
2022-11-08T08:46:35.924Z,7.74
2022-11-08T08:47:37.822Z,7.79
2022-11-08T08:48:39.685Z,7.84
2022-11-08T08:49:41.517Z,7.87
2022-11-08T08:50:43.363Z,7.92
2022-11-08T08:51:45.262Z,7.97
2022-11-08T08:52:47.153Z,7.99
2022-11-08T08:53:48.984Z,7.97
2022-11-08T08:54:50.818Z,8.03
2022-11-08T08:55:53.102Z,8.11
2022-11-08T08:56:54.956Z,8.11
2022-11-08T08:57:56.869Z,8.11
2022-11-08T09:01:42.763Z,8.30
2022-11-08T09:02:45.035Z,8.37
2022-11-08T09:03:47.353Z,8.45
2022-11-08T09:04:49.238Z,8.52
2022-11-08T09:05:51.194Z,8.54
2022-11-08T09:06:53.685Z,8.61
2022-11-08T09:07:56.142Z,8.67
2022-11-08T09:08:57.976Z,8.73
2022-11-08T09:09:59.752Z,8.81
2022-11-08T09:11:01.667Z,8.88
2022-11-08T09:12:03.917Z,8.90
2022-11-08T09:13:05.894Z,8.86
2022-11-08T09:14:07.953Z,8.87
2022-11-08T09:15:10.636Z,8.90
2022-11-08T09:16:14.250Z,8.96
2022-11-08T09:17:16.225Z,9.07
2022-11-08T09:18:18.156Z,9.10
2022-11-08T09:19:20.022Z,9.13
2022-11-08T09:20:22.376Z,9.15
2022-11-08T09:21:24.410Z,9.16
2022-11-08T09:22:26.239Z,9.23
2022-11-08T09:23:28.174Z,9.26
2022-11-08T09:24:30.032Z,9.32
2022-11-08T09:25:32.367Z,9.32
2022-11-08T09:26:34.235Z,9.35
2022-11-08T09:27:36.241Z,9.34
2022-11-08T09:28:38.273Z,9.43
2022-11-08T09:29:40.193Z,9.52
2022-11-08T09:30:41.993Z,9.50
2022-11-08T09:31:43.874Z,9.46
2022-11-08T09:33:00.491Z,9.53
2022-11-08T09:35:10.096Z,9.69
2022-11-08T09:36:13.550Z,9.75
2022-11-08T09:37:15.418Z,9.82
2022-11-08T09:38:17.957Z,9.90
2022-11-08T09:39:20.384Z,9.94
2022-11-08T09:40:33.269Z,10.02
2022-11-08T09:41:55.639Z,10.12
2022-11-08T09:43:06.651Z,10.24
2022-11-08T09:44:15.078Z,10.30
2022-11-08T09:45:22.037Z,10.38
2022-11-08T09:46:29.075Z,10.41
2022-11-08T09:47:32.432Z,10.47
2022-11-08T09:48:42.417Z,10.54
2022-11-08T09:49:49.500Z,10.61
2022-11-08T09:50:52.838Z,10.62
2022-11-08T09:51:54.739Z,10.58
2022-11-08T09:53:14.875Z,10.63
2022-11-08T09:54:21.591Z,10.56
2022-11-08T09:55:26.971Z,10.60
2022-11-08T09:56:30.919Z,10.67
2022-11-08T09:57:37.840Z,10.70
2022-11-08T09:59:02.392Z,10.77
2022-11-08T10:00:05.838Z,10.85
2022-11-08T10:01:12.270Z,10.87
2022-11-08T10:02:18.816Z,11.00
2022-11-08T10:03:23.528Z,11.08
2022-11-08T10:04:26.925Z,11.14
2022-11-08T10:05:35.161Z,11.22
2022-11-08T10:06:52.276Z,11.24
2022-11-08T10:07:59.958Z,11.29
2022-11-08T10:09:12.298Z,11.36
2022-11-08T10:10:32.493Z,11.47
2022-11-08T10:11:40.079Z,11.54
2022-11-08T10:12:58.778Z,11.65
2022-11-08T10:14:09.861Z,11.72
2022-11-08T10:15:14.734Z,11.79
2022-11-08T10:16:23.354Z,11.85
2022-11-08T10:17:36.779Z,11.84
2022-11-08T10:18:52.950Z,11.91
2022-11-08T10:20:07.079Z,11.99
2022-11-08T10:21:27.877Z,12.10
2022-11-08T10:22:36.329Z,12.20
2022-11-08T10:23:45.649Z,12.27
2022-11-08T10:24:58.566Z,12.33
2022-11-08T10:26:01.503Z,12.37
2022-11-08T10:27:06.091Z,12.47
2022-11-08T10:28:08.530Z,12.49
2022-11-08T10:29:17.772Z,12.49
2022-11-08T10:30:21.047Z,12.54
2022-11-08T10:31:22.991Z,12.53
2022-11-08T10:32:29.087Z,12.59
2022-11-08T10:33:45.814Z,12.60
2022-11-08T10:34:55.631Z,12.65
2022-11-08T10:36:02.450Z,12.68
2022-11-08T10:37:06.920Z,12.74
2022-11-08T10:38:18.226Z,12.83
2022-11-08T10:39:28.555Z,12.89
2022-11-08T10:40:33.372Z,12.99
2022-11-08T10:41:46.015Z,13.05
2022-11-08T10:42:52.118Z,13.01
2022-11-08T10:43:57.717Z,13.02
2022-11-08T10:44:59.585Z,13.08
2022-11-08T10:46:01.941Z,13.06
2022-11-08T10:47:06.138Z,13.13
2022-11-08T10:48:10.408Z,13.15
2022-11-08T10:49:17.147Z,13.17
2022-11-08T10:50:21.222Z,13.20
2022-11-08T10:51:23.048Z,13.24
2022-11-08T10:52:24.905Z,13.32
2022-11-08T10:53:27.753Z,13.39
2022-11-08T10:54:48.302Z,13.44
2022-11-08T10:55:52.220Z,13.50
2022-11-08T10:56:56.053Z,13.58
2022-11-08T10:57:57.942Z,13.61
2022-11-08T10:58:59.840Z,13.65
2022-11-08T11:00:19.999Z,13.69
2022-11-08T11:01:23.521Z,13.69
2022-11-08T11:02:29.729Z,13.75
2022-11-08T11:03:32.076Z,13.78
2022-11-08T11:04:35.198Z,13.80
2022-11-08T11:05:38.290Z,13.86
2022-11-08T11:06:40.228Z,13.91
2022-11-08T11:07:44.540Z,13.97
2022-11-08T11:08:55.391Z,14.03
2022-11-08T11:09:57.221Z,14.08
2022-11-08T11:11:17.768Z,14.12
2022-11-08T11:12:19.654Z,14.16
2022-11-08T11:13:24.104Z,14.21
2022-11-08T11:14:26.374Z,14.29
2022-11-08T11:15:32.156Z,14.24
2022-11-08T11:16:35.360Z,14.27
2022-11-08T11:17:40.022Z,14.33
2022-11-08T11:18:51.021Z,14.39
2022-11-08T11:19:56.404Z,14.43
2022-11-08T11:20:58.241Z,14.47
2022-11-08T11:22:07.837Z,14.49
2022-11-08T11:23:11.376Z,14.58
2022-11-08T11:24:19.485Z,14.64
2022-11-08T11:25:23.799Z,14.69
2022-11-08T11:26:30.149Z,14.66
2022-11-08T11:27:34.964Z,14.65
2022-11-08T11:28:36.769Z,14.72
2022-11-08T11:29:39.289Z,14.75
2022-11-08T11:30:42.418Z,14.76
2022-11-08T11:31:45.924Z,14.80
2022-11-08T11:33:02.890Z,14.84
2022-11-08T11:34:19.666Z,14.93
2022-11-08T11:35:21.592Z,14.95
2022-11-08T11:36:24.957Z,15.01
2022-11-08T11:37:45.621Z,15.03
2022-11-08T11:38:47.338Z,15.12
2022-11-08T11:39:55.663Z,15.11
2022-11-08T11:41:02.402Z,15.11
2022-11-08T11:42:31.121Z,15.13
2022-11-08T11:43:49.936Z,15.19
2022-11-08T11:44:54.888Z,15.15
2022-11-08T11:45:59.434Z,15.18
2022-11-08T11:47:21.442Z,15.16
2022-11-08T11:48:23.334Z,15.18
2022-11-08T11:49:26.128Z,15.26
2022-11-08T11:50:35.498Z,15.23
2022-11-08T11:51:37.457Z,15.24
2022-11-08T11:52:40.239Z,15.19
2022-11-08T11:53:47.402Z,15.10
2022-11-08T11:54:50.657Z,15.12
2022-11-08T11:56:11.241Z,15.14
2022-11-08T11:57:19.309Z,15.18
2022-11-08T11:58:24.149Z,15.19
2022-11-08T11:59:44.513Z,15.23
2022-11-08T12:00:51.698Z,15.26
2022-11-08T12:01:54.208Z,15.23
2022-11-08T12:03:16.928Z,15.13
2022-11-08T12:04:24.759Z,15.11
2022-11-08T12:05:32.439Z,15.04
2022-11-08T12:06:45.269Z,14.96
2022-11-08T12:07:53.572Z,14.92
2022-11-08T12:09:15.995Z,14.92
2022-11-08T12:10:23.755Z,15.01
2022-11-08T12:11:44.307Z,15.07
2022-11-08T12:12:46.198Z,15.15
2022-11-08T12:13:54.664Z,15.22
2022-11-08T12:15:00.695Z,15.28
2022-11-08T12:16:02.491Z,15.33
2022-11-08T12:17:22.841Z,15.35
2022-11-08T12:18:44.065Z,15.42
2022-11-08T12:20:07.502Z,15.43
2022-11-08T12:21:21.172Z,15.47
2022-11-08T12:22:23.009Z,15.54
2022-11-08T12:23:39.878Z,15.54
2022-11-08T12:24:41.799Z,15.51
2022-11-08T12:25:43.609Z,15.56
2022-11-08T12:26:57.205Z,15.57
2022-11-08T12:28:11.318Z,15.64
2022-11-08T12:29:23.182Z,15.63
2022-11-08T12:30:37.234Z,15.64
2022-11-08T12:31:45.021Z,15.61
2022-11-08T12:32:49.850Z,15.63
2022-11-08T12:33:56.714Z,15.64
2022-11-08T12:35:11.606Z,15.66
2022-11-08T12:36:24.499Z,15.71
2022-11-08T12:37:29.243Z,15.75
2022-11-08T12:38:51.300Z,15.78
2022-11-08T12:39:59.843Z,15.79
2022-11-08T12:41:22.760Z,15.79
2022-11-08T12:42:48.127Z,15.83
2022-11-08T12:44:18.584Z,15.88
2022-11-08T12:45:32.448Z,15.77
2022-11-08T12:46:41.135Z,15.73
2022-11-08T12:48:06.074Z,15.67
2022-11-08T12:49:07.835Z,15.64
2022-11-08T12:50:24.617Z,15.59
2022-11-08T12:51:40.721Z,15.50
2022-11-08T12:52:54.863Z,15.49
2022-11-08T12:53:56.969Z,15.52
2022-11-08T12:55:01.116Z,15.56
2022-11-08T12:56:04.768Z,15.57
2022-11-08T12:57:10.672Z,15.55
2022-11-08T12:58:34.166Z,15.55
2022-11-08T12:59:45.084Z,15.46
2022-11-08T13:00:52.534Z,15.42
2022-11-08T13:01:55.425Z,15.34
2022-11-08T13:03:07.314Z,15.27
2022-11-08T13:04:19.837Z,15.19
2022-11-08T13:05:27.886Z,15.25
2022-11-08T13:06:29.787Z,15.24
2022-11-08T13:07:50.674Z,15.23
2022-11-08T13:09:02.719Z,15.17
2022-11-08T13:10:12.237Z,15.18
2022-11-08T13:11:19.248Z,15.22
2022-11-08T13:12:40.058Z,15.27
2022-11-08T13:13:53.378Z,15.32
2022-11-08T13:14:55.862Z,15.35
2022-11-08T13:16:08.033Z,15.43
2022-11-08T13:17:14.268Z,15.46
2022-11-08T13:18:17.059Z,15.50
2022-11-08T13:19:29.974Z,15.53
2022-11-08T13:20:40.720Z,15.55
2022-11-08T13:21:43.383Z,15.54
2022-11-08T13:22:56.556Z,15.57
2022-11-08T13:24:06.785Z,15.54
2022-11-08T13:25:18.892Z,15.46
2022-11-08T13:26:21.990Z,15.38
2022-11-08T13:27:34.368Z,15.31
2022-11-08T13:28:46.209Z,15.22
2022-11-08T13:29:48.056Z,15.14
2022-11-08T13:30:55.831Z,15.14
2022-11-08T13:31:57.716Z,15.10
2022-11-08T13:33:04.418Z,15.08
2022-11-08T13:34:09.359Z,15.09
2022-11-08T13:35:14.277Z,15.11
2022-11-08T13:36:34.846Z,15.11
2022-11-08T13:37:36.733Z,15.12
2022-11-08T13:39:01.300Z,15.22
2022-11-08T13:40:05.921Z,15.36
2022-11-08T13:41:16.947Z,15.38
2022-11-08T13:42:18.655Z,15.36
2022-11-08T13:43:23.412Z,15.37
2022-11-08T13:44:44.361Z,15.43
2022-11-08T13:45:46.247Z,15.54
2022-11-08T13:46:48.611Z,15.62
2022-11-08T13:47:53.703Z,15.72
2022-11-08T13:48:58.234Z,15.78
2022-11-08T13:50:18.813Z,15.82
2022-11-08T13:51:30.865Z,15.70
2022-11-08T13:52:44.085Z,15.57
2022-11-08T13:53:54.757Z,15.51
2022-11-08T13:54:56.633Z,15.43
2022-11-08T13:56:07.472Z,15.25
2022-11-08T13:57:16.991Z,15.16
2022-11-08T13:58:33.623Z,15.09
2022-11-08T13:59:35.608Z,15.04
2022-11-08T14:00:45.748Z,14.99
2022-11-08T14:01:47.708Z,14.95
2022-11-08T14:02:49.507Z,14.89
2022-11-08T14:03:51.228Z,14.78
2022-11-08T14:04:54.243Z,14.75
2022-11-08T14:05:56.961Z,14.67
2022-11-08T14:07:13.959Z,14.62
2022-11-08T14:08:18.253Z,14.55
2022-11-08T14:09:20.545Z,14.46
2022-11-08T14:10:32.903Z,14.47
2022-11-08T14:11:43.909Z,14.45
2022-11-08T14:12:48.802Z,14.46
2022-11-08T14:14:03.824Z,14.41
2022-11-08T14:15:11.507Z,14.35
2022-11-08T14:16:16.664Z,14.32
2022-11-08T14:17:30.358Z,14.28
2022-11-08T14:18:39.195Z,14.26
2022-11-08T14:19:42.402Z,14.27